createdAt,value
2018-09-06T00:01:46.343Z,13.97
2018-09-06T00:04:14.571Z,14.87
2018-09-06T00:06:42.791Z,14.57
2018-09-06T00:09:11.040Z,14.40
2018-09-06T00:11:39.287Z,14.77
2018-09-06T00:14:08.599Z,15.33
2018-09-06T00:16:36.827Z,14.80
2018-09-06T00:19:05.315Z,15.00
2018-09-06T00:21:33.602Z,13.93
2018-09-06T00:24:01.819Z,12.77
2018-09-06T00:26:30.063Z,14.50
2018-09-06T00:28:58.294Z,14.17
2018-09-06T00:31:26.519Z,13.77
2018-09-06T00:33:54.770Z,15.50
2018-09-06T00:36:23.006Z,13.73
2018-09-06T00:38:51.230Z,14.57
2018-09-06T00:41:19.619Z,15.13
2018-09-06T00:43:47.855Z,14.33
2018-09-06T00:46:16.094Z,15.10
2018-09-06T00:48:44.342Z,15.47
2018-09-06T00:51:12.574Z,13.83
2018-09-06T00:53:40.782Z,14.57
2018-09-06T00:56:09.025Z,14.00
2018-09-06T00:58:37.284Z,14.73
2018-09-06T01:01:05.517Z,14.23
2018-09-06T01:03:33.746Z,14.07
2018-09-06T01:06:01.978Z,14.07
2018-09-06T01:08:30.199Z,15.13
2018-09-06T01:10:58.470Z,14.77
2018-09-06T01:13:26.710Z,15.17
2018-09-06T01:15:54.913Z,15.13
2018-09-06T01:18:23.166Z,15.83
2018-09-06T01:20:51.401Z,16.53
2018-09-06T01:23:19.654Z,15.30
2018-09-06T01:25:47.891Z,16.20
2018-09-06T01:28:16.786Z,15.67
2018-09-06T01:30:45.014Z,15.00
2018-09-06T01:33:13.272Z,16.60
2018-09-06T01:35:48.409Z,15.73
2018-09-06T01:38:17.248Z,16.37
2018-09-06T01:40:45.497Z,17.10
2018-09-06T01:43:13.739Z,18.03
2018-09-06T01:45:42.009Z,16.40
2018-09-06T01:48:10.321Z,17.80
2018-09-06T01:50:38.545Z,17.70
2018-09-06T01:53:06.837Z,19.87
2018-09-06T01:55:35.070Z,18.83
2018-09-06T01:58:03.282Z,17.70
2018-09-06T02:00:31.516Z,19.43
2018-09-06T02:02:59.755Z,17.70
2018-09-06T02:05:35.381Z,16.63
2018-09-06T02:08:04.461Z,19.70
2018-09-06T02:10:32.765Z,18.27
2018-09-06T02:13:01.022Z,19.50
2018-09-06T02:15:29.281Z,18.73
2018-09-06T02:17:57.505Z,16.23
2018-09-06T02:20:25.743Z,18.53
2018-09-06T02:22:54.290Z,19.83
2018-09-06T02:25:22.539Z,19.17
2018-09-06T02:27:50.775Z,21.53
2018-09-06T02:30:19.017Z,20.73
2018-09-06T02:32:47.258Z,21.03
2018-09-06T02:35:15.486Z,19.57
2018-09-06T02:37:43.731Z,21.57
2018-09-06T02:40:16.110Z,20.00
2018-09-06T02:42:44.360Z,20.23
2018-09-06T02:45:12.595Z,21.07
2018-09-06T02:47:46.166Z,21.57
2018-09-06T02:50:19.646Z,23.27
2018-09-06T02:52:47.871Z,23.80
2018-09-06T02:55:16.138Z,30.33
2018-09-06T02:57:44.375Z,34.43
2018-09-06T03:00:12.586Z,40.30
2018-09-06T03:02:40.822Z,38.87
2018-09-06T03:05:09.143Z,36.83
2018-09-06T03:07:37.434Z,42.67
2018-09-06T03:10:05.744Z,39.53
2018-09-06T03:12:33.987Z,38.63
2018-09-06T03:15:02.258Z,39.43
2018-09-06T03:17:30.526Z,40.07
2018-09-06T03:19:58.946Z,36.90
2018-09-06T03:22:27.163Z,36.83
2018-09-06T03:24:55.442Z,34.63
2018-09-06T03:27:23.705Z,39.10
2018-09-06T03:29:51.974Z,39.93
2018-09-06T03:32:20.258Z,40.37
2018-09-06T03:34:48.521Z,41.47
2018-09-06T03:37:16.781Z,43.67
2018-09-06T03:39:44.998Z,40.13
2018-09-06T03:42:13.269Z,38.47
2018-09-06T03:44:41.503Z,43.33
2018-09-06T03:47:09.742Z,44.17
2018-09-06T03:49:38.342Z,44.03
2018-09-06T03:52:06.682Z,39.87
2018-09-06T03:54:34.907Z,41.30
2018-09-06T03:57:03.258Z,37.17
2018-09-06T03:59:31.540Z,37.90
2018-09-06T04:01:59.782Z,41.87
2018-09-06T04:04:28.048Z,36.33
2018-09-06T04:06:56.309Z,36.73
2018-09-06T04:09:24.545Z,33.50
2018-09-06T04:11:52.802Z,35.93
2018-09-06T04:14:21.035Z,40.43
2018-09-06T04:16:49.257Z,40.80
2018-09-06T04:19:17.484Z,39.87
2018-09-06T04:21:45.711Z,37.00
2018-09-06T04:24:14.007Z,42.23
2018-09-06T04:26:42.161Z,39.37
2018-09-06T04:29:10.398Z,39.47
2018-09-06T04:31:38.635Z,41.07
2018-09-06T04:34:06.923Z,36.10
2018-09-06T04:36:35.170Z,34.77
2018-09-06T04:39:03.506Z,33.47
2018-09-06T04:41:31.722Z,38.83
2018-09-06T04:43:59.970Z,38.27
2018-09-06T04:46:28.185Z,37.60
2018-09-06T04:48:56.410Z,36.53
2018-09-06T04:51:24.641Z,38.53
2018-09-06T04:53:52.861Z,44.20
2018-09-06T04:56:21.110Z,39.13
2018-09-06T04:58:49.366Z,40.10
2018-09-06T05:01:17.603Z,40.93
2018-09-06T05:03:45.827Z,42.50
2018-09-06T05:06:14.198Z,39.17
2018-09-06T05:08:42.539Z,40.17
2018-09-06T05:11:10.751Z,40.20
2018-09-06T05:13:39.036Z,39.73
2018-09-06T05:16:07.266Z,45.33
2018-09-06T05:18:35.527Z,44.07
2018-09-06T05:21:03.778Z,42.77
2018-09-06T05:23:32.007Z,40.93
2018-09-06T05:26:00.224Z,43.87
2018-09-06T05:28:28.447Z,47.20
2018-09-06T05:30:56.774Z,43.37
2018-09-06T05:33:25.019Z,44.33
2018-09-06T05:35:53.368Z,46.43
2018-09-06T05:38:21.603Z,50.57
2018-09-06T05:40:49.838Z,44.10
2018-09-06T05:43:18.072Z,49.17
2018-09-06T05:45:46.277Z,46.60
2018-09-06T05:48:14.523Z,46.33
2018-09-06T05:50:42.731Z,43.70
2018-09-06T05:53:10.975Z,45.33
2018-09-06T05:55:40.247Z,47.17
2018-09-06T05:58:08.623Z,48.93
2018-09-06T06:00:41.898Z,49.90
2018-09-06T06:03:10.244Z,50.40
2018-09-06T06:05:38.541Z,48.17
2018-09-06T06:08:18.226Z,49.10
2018-09-06T06:10:46.502Z,50.80
2018-09-06T06:13:14.818Z,56.43
2018-09-06T06:15:43.043Z,51.30
2018-09-06T06:18:11.258Z,46.23
2018-09-06T06:20:39.534Z,50.13
2018-09-06T06:23:07.871Z,52.00
2018-09-06T06:25:36.207Z,55.17
2018-09-06T06:28:04.465Z,52.27
2018-09-06T06:30:32.698Z,50.77
2018-09-06T06:33:00.922Z,56.77
2018-09-06T06:35:29.143Z,53.03
2018-09-06T06:37:57.369Z,53.30
2018-09-06T06:40:25.615Z,53.27
2018-09-06T06:42:53.894Z,57.10
2018-09-06T06:45:22.223Z,51.37
2018-09-06T06:47:50.508Z,51.00
2018-09-06T06:50:18.795Z,52.13
2018-09-06T06:52:47.013Z,55.97
2018-09-06T06:55:15.546Z,57.40
2018-09-06T06:57:43.866Z,53.73
2018-09-06T07:00:13.166Z,53.90
2018-09-06T07:02:41.402Z,53.03
2018-09-06T07:05:09.719Z,50.83
2018-09-06T07:07:39.072Z,45.23
2018-09-06T07:10:07.330Z,53.03
2018-09-06T07:12:35.645Z,43.50
2018-09-06T07:15:03.923Z,46.10
2018-09-06T07:17:32.184Z,45.17
2018-09-06T07:20:00.433Z,43.57
2018-09-06T07:22:28.650Z,45.93
2018-09-06T07:24:56.999Z,42.40
2018-09-06T07:27:25.271Z,40.50
2018-09-06T07:29:53.530Z,45.27
2018-09-06T07:32:22.066Z,45.20
2018-09-06T07:34:50.348Z,42.57
2018-09-06T07:37:18.558Z,45.80
2018-09-06T07:39:46.795Z,43.57
2018-09-06T07:42:15.023Z,42.73
2018-09-06T07:44:43.291Z,43.60
2018-09-06T07:47:11.505Z,45.90
2018-09-06T07:49:39.771Z,44.87
2018-09-06T07:52:08.088Z,44.90
2018-09-06T07:54:37.346Z,41.87
2018-09-06T07:57:05.570Z,38.57
2018-09-06T07:59:33.786Z,42.63
2018-09-06T08:02:02.133Z,37.73
2018-09-06T08:04:30.372Z,38.07
2018-09-06T08:06:58.635Z,36.07
2018-09-06T08:09:26.851Z,32.77
2018-09-06T08:11:55.168Z,31.23
2018-09-06T08:14:23.589Z,33.10
2018-09-06T08:16:51.847Z,34.30
2018-09-06T08:19:20.067Z,35.77
2018-09-06T08:21:48.315Z,33.37
2018-09-06T08:24:16.613Z,35.83
2018-09-06T08:26:44.843Z,36.40
2018-09-06T08:29:13.110Z,35.40
2018-09-06T08:31:41.365Z,33.73
2018-09-06T08:34:09.606Z,31.30
2018-09-06T08:36:37.838Z,32.27
2018-09-06T08:39:08.837Z,33.17
2018-09-06T08:41:37.376Z,34.47
2018-09-06T08:44:05.639Z,29.03
2018-09-06T08:46:33.888Z,33.00
2018-09-06T08:49:02.143Z,27.67
2018-09-06T08:51:30.371Z,28.50
2018-09-06T08:53:58.618Z,28.27
2018-09-06T08:56:26.871Z,26.57
2018-09-06T08:58:55.168Z,26.00
2018-09-06T09:01:28.840Z,26.60
2018-09-06T09:03:57.578Z,27.10
2018-09-06T09:06:25.863Z,26.90
2018-09-06T09:08:54.114Z,24.57
2018-09-06T09:11:22.351Z,26.07
2018-09-06T09:13:50.621Z,25.10
2018-09-06T09:16:19.055Z,29.07
2018-09-06T09:18:47.299Z,26.30
2018-09-06T09:21:15.504Z,26.30
2018-09-06T09:23:43.749Z,31.07
2018-09-06T09:26:11.990Z,27.53
2018-09-06T09:28:40.228Z,29.60
2018-09-06T09:31:08.469Z,29.10
2018-09-06T09:33:36.747Z,24.57
2018-09-06T09:36:05.068Z,26.67
2018-09-06T09:38:33.258Z,28.47
2018-09-06T09:41:01.539Z,27.17
2018-09-06T09:43:29.778Z,24.67
2018-09-06T09:48:25.490Z,27.13
2018-09-06T09:50:53.742Z,25.17
2018-09-06T09:53:21.973Z,22.77
2018-09-06T09:55:50.201Z,22.87
2018-09-06T09:58:18.479Z,21.63
2018-09-06T10:00:46.782Z,19.00
2018-09-06T10:03:20.149Z,14.80
2018-09-06T10:05:53.887Z,18.60
2018-09-06T10:08:28.521Z,18.33
2018-09-06T10:10:56.883Z,18.47
2018-09-06T10:13:25.133Z,19.70
2018-09-06T10:15:53.382Z,22.60
2018-09-06T10:18:21.667Z,23.17
2018-09-06T10:20:49.913Z,23.07
2018-09-06T10:23:18.150Z,23.97
2018-09-06T10:25:46.414Z,22.87
2018-09-06T10:28:14.727Z,24.53
2018-09-06T10:30:43.037Z,26.67
2018-09-06T10:33:11.302Z,25.07
2018-09-06T10:35:39.617Z,28.57
2018-09-06T10:38:07.883Z,26.63
2018-09-06T10:40:36.189Z,28.07
2018-09-06T10:43:04.426Z,25.00
2018-09-06T10:45:32.883Z,25.63
2018-09-06T10:48:01.315Z,27.33
2018-09-06T10:50:29.559Z,27.00
2018-09-06T10:52:57.786Z,27.30
2018-09-06T10:55:26.015Z,27.43
2018-09-06T10:57:54.242Z,28.67
2018-09-06T11:00:22.458Z,27.83
2018-09-06T11:02:50.753Z,27.73
2018-09-06T11:05:19.310Z,27.87
2018-09-06T11:07:47.556Z,31.10
2018-09-06T11:10:15.801Z,29.77
2018-09-06T11:12:44.020Z,28.77
2018-09-06T11:15:12.262Z,29.30
2018-09-06T11:17:40.482Z,31.53
2018-09-06T11:20:08.768Z,31.53
2018-09-06T11:22:37.307Z,30.27
2018-09-06T11:25:05.269Z,33.50
2018-09-06T11:27:33.518Z,32.50
2018-09-06T11:30:01.733Z,35.73
2018-09-06T11:32:30.090Z,34.13
2018-09-06T11:34:58.387Z,35.13
2018-09-06T11:37:26.694Z,34.17
2018-09-06T11:39:55.013Z,37.77
2018-09-06T11:42:23.213Z,33.63
2018-09-06T11:44:51.471Z,33.67
2018-09-06T11:47:19.855Z,33.67
2018-09-06T11:49:48.042Z,33.60
2018-09-06T11:52:16.313Z,35.03
2018-09-06T11:54:44.563Z,36.03
2018-09-06T11:57:12.940Z,35.63
2018-09-06T11:59:41.204Z,37.00
2018-09-06T12:02:09.491Z,36.73
2018-09-06T12:04:37.738Z,41.47
2018-09-06T12:07:06.012Z,35.17
2018-09-06T12:09:34.254Z,36.17
2018-09-06T12:12:02.593Z,37.50
2018-09-06T12:14:30.815Z,36.80
2018-09-06T12:16:59.177Z,36.97
2018-09-06T12:19:27.482Z,38.37
2018-09-06T12:21:55.646Z,37.40
2018-09-06T12:24:23.950Z,37.67
2018-09-06T12:26:52.209Z,36.57
2018-09-06T12:29:20.535Z,37.67
2018-09-06T12:31:48.902Z,36.40
2018-09-06T12:34:17.151Z,38.07
2018-09-06T12:36:45.450Z,37.30
2018-09-06T12:39:13.762Z,36.53
2018-09-06T12:41:42.047Z,37.20
2018-09-06T12:44:10.307Z,39.10
2018-09-06T12:46:38.595Z,38.73
2018-09-06T12:49:06.953Z,37.07
2018-09-06T12:51:35.225Z,38.40
2018-09-06T12:54:03.503Z,38.77
2018-09-06T12:56:31.760Z,37.27
2018-09-06T12:59:00.079Z,39.43
2018-09-06T13:01:29.394Z,36.80
2018-09-06T13:03:57.646Z,39.10
2018-09-06T13:06:25.905Z,37.30
2018-09-06T13:08:55.223Z,39.80
2018-09-06T13:11:23.505Z,38.70
2018-09-06T13:13:51.767Z,38.77
2018-09-06T13:16:20.049Z,38.63
2018-09-06T13:18:48.467Z,34.80
2018-09-06T13:21:16.612Z,37.57
2018-09-06T13:23:44.881Z,38.27
2018-09-06T13:26:13.169Z,36.33
2018-09-06T13:28:41.407Z,38.03
2018-09-06T13:31:09.654Z,37.90
2018-09-06T13:33:37.927Z,29.80
2018-09-06T13:36:06.171Z,25.87
2018-09-06T13:38:34.385Z,28.80
2018-09-06T13:41:02.630Z,29.13
2018-09-06T13:43:30.943Z,27.73
2018-09-06T13:45:59.114Z,30.53
2018-09-06T13:48:27.347Z,29.77
2018-09-06T13:50:55.650Z,31.03
2018-09-06T13:53:23.887Z,27.63
2018-09-06T13:55:52.118Z,25.63
2018-09-06T13:58:20.368Z,25.63
2018-09-06T14:00:48.611Z,24.33
2018-09-06T14:03:16.846Z,22.13
2018-09-06T14:05:45.130Z,22.00
2018-09-06T14:08:13.303Z,21.40
2018-09-06T14:10:41.526Z,20.10
2018-09-06T14:13:09.768Z,19.57
2018-09-06T14:15:38.001Z,19.33
2018-09-06T14:18:06.222Z,20.10
2018-09-06T14:20:34.489Z,17.77
2018-09-06T14:23:02.719Z,20.40
2018-09-06T14:25:30.934Z,21.20
2018-09-06T14:27:59.154Z,20.83
2018-09-06T14:30:27.375Z,21.63
2018-09-06T14:32:55.605Z,20.60
2018-09-06T14:35:23.834Z,22.47
2018-09-06T14:37:52.054Z,22.73
2018-09-06T14:40:19.514Z,24.50
2018-09-06T14:42:47.742Z,23.17
2018-09-06T14:45:16.327Z,27.03
2018-09-06T14:47:44.727Z,27.57
2018-09-06T14:50:13.035Z,27.80
2018-09-06T14:52:41.262Z,27.40
2018-09-06T14:55:10.538Z,26.43
2018-09-06T14:57:38.766Z,25.57
2018-09-06T15:00:07.008Z,29.13
2018-09-06T15:02:35.234Z,24.37
2018-09-06T15:05:03.501Z,27.87
2018-09-06T15:07:31.847Z,27.80
2018-09-06T15:10:00.185Z,26.57
2018-09-06T15:12:28.462Z,28.47
2018-09-06T15:14:56.683Z,28.77
2018-09-06T15:17:24.927Z,29.90
2018-09-06T15:19:54.284Z,30.10
2018-09-06T15:22:22.554Z,31.20
2018-09-06T15:24:50.826Z,30.03
2018-09-06T15:27:19.046Z,32.20
2018-09-06T15:29:47.278Z,30.17
2018-09-06T15:32:15.503Z,31.80
2018-09-06T15:34:43.802Z,29.80
2018-09-06T15:37:11.976Z,30.03
2018-09-06T15:39:40.227Z,29.87
2018-09-06T15:42:08.549Z,30.20
2018-09-06T15:44:36.773Z,31.20
2018-09-06T15:47:05.119Z,32.27
2018-09-06T15:49:33.485Z,33.27
2018-09-06T15:52:01.708Z,28.90
2018-09-06T15:54:29.946Z,31.37
2018-09-06T15:56:58.177Z,32.33
2018-09-06T15:59:26.426Z,29.30
2018-09-06T16:01:54.660Z,32.33
2018-09-06T16:04:22.882Z,31.93
2018-09-06T16:06:51.142Z,31.37
2018-09-06T16:09:19.380Z,31.13
2018-09-06T16:11:47.613Z,31.60
2018-09-06T16:14:15.851Z,33.63
2018-09-06T16:16:44.095Z,31.63
2018-09-06T16:19:12.301Z,27.33
2018-09-06T16:21:40.556Z,29.83
2018-09-06T16:24:08.857Z,28.20
2018-09-06T16:26:37.049Z,30.03
2018-09-06T16:29:05.442Z,28.57
2018-09-06T16:31:33.670Z,29.77
2018-09-06T16:34:01.949Z,31.80
2018-09-06T16:36:30.166Z,36.47
2018-09-06T16:38:58.406Z,38.03
2018-09-06T16:41:26.656Z,34.17
2018-09-06T16:43:54.973Z,33.57
2018-09-06T16:46:23.206Z,32.33
2018-09-06T16:48:51.512Z,30.70
2018-09-06T16:51:19.725Z,31.50
2018-09-06T16:53:47.963Z,28.90
2018-09-06T16:56:16.290Z,29.87
2018-09-06T16:58:44.518Z,29.37
2018-09-06T17:01:12.797Z,28.90
2018-09-06T17:03:41.015Z,28.03
2018-09-06T17:06:09.359Z,28.73
2018-09-06T17:08:37.798Z,25.03
2018-09-06T17:11:06.079Z,25.07
2018-09-06T17:13:34.302Z,28.07
2018-09-06T17:16:02.555Z,25.37
2018-09-06T17:18:30.896Z,24.73
2018-09-06T17:20:59.179Z,24.17
2018-09-06T17:23:27.421Z,25.07
2018-09-06T17:25:55.781Z,26.03
2018-09-06T17:28:24.022Z,26.53
2018-09-06T17:30:52.338Z,24.70
2018-09-06T17:33:20.628Z,23.77
2018-09-06T17:35:48.877Z,27.70
2018-09-06T17:38:17.134Z,27.83
2018-09-06T17:40:45.393Z,26.93
2018-09-06T17:43:13.622Z,25.83
2018-09-06T17:45:41.898Z,27.13
2018-09-06T17:48:10.209Z,26.07
2018-09-06T17:50:38.462Z,28.30
2018-09-06T17:53:06.815Z,25.07
2018-09-06T17:55:35.772Z,26.53
2018-09-06T17:58:03.979Z,27.20
2018-09-06T18:00:32.252Z,25.97
2018-09-06T18:03:00.514Z,22.87
2018-09-06T18:05:28.806Z,17.27
2018-09-06T18:07:57.114Z,17.23
2018-09-06T18:10:25.394Z,13.77
2018-09-06T18:12:53.635Z,13.80
2018-09-06T18:15:21.945Z,11.90
2018-09-06T18:17:50.340Z,10.43
2018-09-06T18:20:18.478Z,10.33
2018-09-06T18:22:46.826Z,9.13
2018-09-06T18:25:15.083Z,10.10
2018-09-06T18:27:43.354Z,10.17
2018-09-06T18:30:11.639Z,9.30
2018-09-06T18:32:39.918Z,11.17
2018-09-06T18:35:08.163Z,10.03
2018-09-06T18:37:36.492Z,10.07
2018-09-06T18:40:04.702Z,11.27
2018-09-06T18:42:32.931Z,10.60
2018-09-06T18:45:01.241Z,11.53
2018-09-06T18:47:29.490Z,10.10
2018-09-06T18:49:57.802Z,10.47
2018-09-06T18:52:26.067Z,10.97
2018-09-06T18:54:54.334Z,11.90
2018-09-06T18:57:22.595Z,12.37
2018-09-06T18:59:50.877Z,12.77
2018-09-06T19:02:19.127Z,12.13
2018-09-06T19:04:47.385Z,12.70
2018-09-06T19:07:15.643Z,12.03
2018-09-06T19:09:44.455Z,11.93
2018-09-06T19:12:12.855Z,12.20
2018-09-06T19:14:41.130Z,14.40
2018-09-06T19:17:09.413Z,13.07
2018-09-06T19:19:37.640Z,14.70
2018-09-06T19:22:05.958Z,13.13
2018-09-06T19:24:34.205Z,14.97
2018-09-06T19:27:02.450Z,13.07
2018-09-06T19:29:30.693Z,14.60
2018-09-06T19:31:59.078Z,14.43
2018-09-06T19:34:27.258Z,15.30
2018-09-06T19:36:55.487Z,15.53
2018-09-06T19:39:23.809Z,19.17
2018-09-06T19:41:52.046Z,18.60
2018-09-06T19:44:20.318Z,16.93
2018-09-06T19:46:48.546Z,17.03
2018-09-06T19:49:16.843Z,19.30
2018-09-06T19:51:45.122Z,18.07
2018-09-06T19:54:13.434Z,18.13
2018-09-06T19:56:41.627Z,20.87
2018-09-06T19:59:09.874Z,19.80
2018-09-06T20:01:38.558Z,21.00
2018-09-06T20:04:06.895Z,20.40
2018-09-06T20:06:36.059Z,19.70
2018-09-06T20:09:04.993Z,19.27
2018-09-06T20:11:33.234Z,21.03
2018-09-06T20:14:01.960Z,19.50
2018-09-06T20:16:30.226Z,19.73
2018-09-06T20:18:58.486Z,21.10
2018-09-06T20:21:26.733Z,20.90
2018-09-06T20:23:54.982Z,23.93
2018-09-06T20:26:23.226Z,22.67
2018-09-06T20:28:51.477Z,23.60
2018-09-06T20:31:19.703Z,22.70
2018-09-06T20:33:47.940Z,24.00
2018-09-06T20:36:16.218Z,22.60
2018-09-06T20:38:44.476Z,21.50
2018-09-06T20:41:12.701Z,25.23
2018-09-06T20:43:41.012Z,21.43
2018-09-06T20:46:09.238Z,25.47
2018-09-06T20:48:37.465Z,25.37
2018-09-06T20:51:05.738Z,26.93
2018-09-06T20:53:33.982Z,28.07
2018-09-06T20:56:02.223Z,26.50
2018-09-06T20:58:31.492Z,26.00
2018-09-06T21:01:01.735Z,27.67
2018-09-06T21:03:29.963Z,26.43
2018-09-06T21:05:58.296Z,26.63
2018-09-06T21:08:26.587Z,27.47
2018-09-06T21:10:54.785Z,26.50
2018-09-06T21:13:23.055Z,26.33
2018-09-06T21:15:51.303Z,24.53
2018-09-06T21:18:19.530Z,24.53
2018-09-06T21:20:47.751Z,24.97
2018-09-06T21:23:15.999Z,23.57
2018-09-06T21:25:44.223Z,24.20
2018-09-06T21:28:12.483Z,24.60
2018-09-06T21:30:40.773Z,24.87
2018-09-06T21:33:09.707Z,24.90
2018-09-06T21:35:37.998Z,22.40
2018-09-06T21:38:06.274Z,25.40
2018-09-06T21:40:34.509Z,24.13
2018-09-06T21:43:02.746Z,23.67
2018-09-06T21:45:30.969Z,22.33
2018-09-06T21:47:59.258Z,22.53
2018-09-06T21:50:27.466Z,23.43
2018-09-06T21:52:55.698Z,20.73
2018-09-06T21:55:23.931Z,22.27
2018-09-06T21:57:52.162Z,19.93
2018-09-06T22:00:19.454Z,19.97
2018-09-06T22:02:53.045Z,19.40
2018-09-06T22:05:21.277Z,19.53
2018-09-06T22:07:49.547Z,18.53
2018-09-06T22:10:21.451Z,20.20
2018-09-06T22:12:50.728Z,18.57
2018-09-06T22:15:19.176Z,19.07
2018-09-06T22:17:47.486Z,19.40
2018-09-06T22:20:15.841Z,17.77
2018-09-06T22:22:44.230Z,17.13
2018-09-06T22:25:12.591Z,17.67
2018-09-06T22:27:41.970Z,17.50
2018-09-06T22:30:10.287Z,17.63
2018-09-06T22:32:39.606Z,18.30
2018-09-06T22:35:07.865Z,17.03
2018-09-06T22:37:36.093Z,17.40
2018-09-06T22:40:04.345Z,17.43
2018-09-06T22:42:32.626Z,16.87
2018-09-06T22:45:00.953Z,17.73
2018-09-06T22:47:29.254Z,17.13
2018-09-06T22:49:57.461Z,16.43
2018-09-06T22:52:25.815Z,16.87
2018-09-06T22:54:54.072Z,16.37
2018-09-06T22:57:22.294Z,15.93
2018-09-06T22:59:50.536Z,14.67
2018-09-06T23:02:18.786Z,15.23
2018-09-06T23:04:47.031Z,14.50
2018-09-06T23:07:15.289Z,14.70
2018-09-06T23:09:43.518Z,13.10
2018-09-06T23:12:11.748Z,14.27
2018-09-06T23:14:39.991Z,14.33
2018-09-06T23:17:08.258Z,13.57
2018-09-06T23:19:36.510Z,13.03
2018-09-06T23:22:04.799Z,12.47
2018-09-06T23:24:33.040Z,13.77
2018-09-06T23:27:01.285Z,14.30
2018-09-06T23:29:29.547Z,13.50
2018-09-06T23:31:57.755Z,12.77
2018-09-06T23:34:29.223Z,12.77
2018-09-06T23:36:57.450Z,13.33
2018-09-06T23:39:25.680Z,13.57
2018-09-06T23:41:53.917Z,13.40
2018-09-06T23:44:22.179Z,13.80
2018-09-06T23:46:50.991Z,14.67
2018-09-06T23:49:19.251Z,12.87
2018-09-06T23:51:46.498Z,12.83
2018-09-06T23:54:14.758Z,13.60
2018-09-06T23:56:42.977Z,13.20
2018-09-06T23:59:11.207Z,12.27
